createdAt,value
2022-09-18T00:01:32.335Z,10.24
2022-09-18T00:04:03.075Z,10.32
2022-09-18T00:06:34.157Z,10.32
2022-09-18T00:09:03.425Z,10.28
2022-09-18T00:11:37.256Z,10.23
2022-09-18T00:14:06.957Z,10.24
2022-09-18T00:16:35.392Z,10.37
2022-09-18T00:19:03.433Z,10.36
2022-09-18T00:21:32.039Z,10.41
2022-09-18T00:24:01.220Z,10.39
2022-09-18T00:26:29.236Z,10.38
2022-09-18T00:28:58.467Z,10.32
2022-09-18T00:31:30.081Z,10.34
2022-09-18T00:34:00.720Z,10.32
2022-09-18T00:36:29.977Z,10.30
2022-09-18T00:38:59.434Z,10.31
2022-09-18T00:41:31.157Z,10.27
2022-09-18T00:44:37.699Z,10.31
2022-09-18T00:47:11.053Z,10.29
2022-09-18T00:49:42.975Z,10.25
2022-09-18T00:52:12.170Z,10.23
2022-09-18T00:54:42.257Z,10.25
2022-09-18T00:57:14.547Z,10.20
2022-09-18T00:59:45.851Z,10.24
2022-09-18T01:02:13.342Z,10.18
2022-09-18T01:04:41.122Z,10.19
2022-09-18T01:07:29.301Z,10.20
2022-09-18T01:10:27.280Z,10.13
2022-09-18T01:12:56.245Z,10.15
2022-09-18T01:16:00.609Z,10.09
2022-09-18T01:18:31.107Z,10.04
2022-09-18T01:21:16.474Z,10.00
2022-09-18T01:24:28.345Z,10.03
2022-09-18T01:27:09.440Z,9.98
2022-09-18T01:29:47.980Z,9.92
2022-09-18T01:32:21.709Z,9.86
2022-09-18T01:35:39.419Z,9.88
2022-09-18T01:38:09.181Z,9.88
2022-09-18T01:40:42.615Z,9.84
2022-09-18T01:43:16.048Z,9.80
2022-09-18T01:45:47.578Z,9.81
2022-09-18T01:48:25.894Z,9.80
2022-09-18T01:51:01.497Z,9.68
2022-09-18T01:53:34.860Z,9.75
2022-09-18T01:56:15.703Z,9.66
2022-09-18T01:58:45.098Z,9.69
2022-09-18T02:01:17.114Z,9.75
2022-09-18T02:03:57.772Z,9.63
2022-09-18T02:07:00.896Z,9.64
2022-09-18T02:09:29.889Z,9.68
2022-09-18T02:12:02.028Z,9.60
2022-09-18T02:14:38.062Z,9.58
2022-09-18T02:17:13.446Z,9.57
2022-09-18T02:20:02.429Z,9.57
2022-09-18T02:22:33.015Z,9.57
2022-09-18T02:25:04.711Z,9.52
2022-09-18T02:27:34.835Z,9.58
2022-09-18T02:30:06.056Z,9.54
2022-09-18T02:32:37.015Z,9.45
2022-09-18T02:35:08.055Z,9.46
2022-09-18T02:37:49.607Z,9.43
2022-09-18T02:40:38.583Z,9.48
2022-09-18T02:43:19.065Z,9.49
2022-09-18T02:45:49.796Z,9.48
2022-09-18T02:48:48.021Z,9.46
2022-09-18T02:51:29.094Z,9.37
2022-09-18T02:54:05.659Z,9.39
2022-09-18T02:56:57.197Z,9.32
2022-09-18T02:59:36.204Z,9.29
2022-09-18T03:02:04.662Z,9.33
2022-09-18T03:04:33.140Z,9.21
2022-09-18T03:07:01.008Z,9.27
2022-09-18T03:09:30.116Z,9.21
2022-09-18T03:11:57.956Z,9.19
2022-09-18T03:14:26.077Z,9.20
2022-09-18T03:16:54.001Z,9.18
2022-09-18T03:19:21.468Z,9.17
2022-09-18T03:21:51.194Z,9.22
2022-09-18T03:24:20.756Z,9.19
2022-09-18T03:26:48.558Z,9.18
2022-09-18T03:29:16.032Z,9.22
2022-09-18T03:31:43.914Z,9.18
2022-09-18T03:34:11.921Z,9.18
2022-09-18T03:36:39.490Z,9.07
2022-09-18T03:39:07.504Z,9.09
2022-09-18T03:41:35.147Z,9.03
2022-09-18T03:44:02.781Z,9.04
2022-09-18T03:46:30.688Z,9.00
2022-09-18T03:48:58.451Z,8.96
2022-09-18T03:51:26.511Z,8.94
2022-09-18T03:53:54.211Z,9.01
2022-09-18T03:56:21.843Z,9.01
2022-09-18T03:58:49.455Z,9.04
2022-09-18T04:01:19.852Z,8.99
2022-09-18T04:03:50.175Z,8.94
2022-09-18T04:06:18.872Z,8.95
2022-09-18T04:08:48.003Z,8.89
2022-09-18T04:11:17.008Z,8.91
2022-09-18T04:13:44.439Z,8.87
2022-09-18T04:16:12.800Z,8.88
2022-09-18T04:18:40.568Z,8.91
2022-09-18T04:21:08.752Z,8.84
2022-09-18T04:23:36.223Z,8.91
2022-09-18T04:26:09.107Z,8.95
2022-09-18T04:28:38.327Z,8.95
2022-09-18T04:31:06.456Z,8.92
2022-09-18T04:33:33.955Z,8.90
2022-09-18T04:36:06.019Z,8.94
2022-09-18T04:38:35.163Z,8.95
2022-09-18T04:41:02.604Z,8.92
2022-09-18T04:43:30.123Z,8.85
2022-09-18T04:45:59.064Z,8.89
2022-09-18T04:48:26.474Z,8.94
2022-09-18T04:50:54.192Z,8.95
2022-09-18T04:53:22.604Z,8.96
2022-09-18T04:55:50.075Z,8.93
2022-09-18T04:58:19.984Z,8.94
2022-09-18T05:00:50.739Z,8.90
2022-09-18T05:03:19.511Z,8.88
2022-09-18T05:05:49.792Z,8.94
2022-09-18T05:08:17.820Z,8.83
2022-09-18T05:10:45.339Z,8.85
2022-09-18T05:13:13.186Z,8.89
2022-09-18T05:15:41.817Z,8.84
2022-09-18T05:18:12.049Z,8.87
2022-09-18T05:20:39.921Z,8.89
2022-09-18T05:23:08.361Z,8.90
2022-09-18T05:25:36.560Z,8.93
2022-09-18T05:28:04.196Z,8.97
2022-09-18T05:30:32.693Z,8.96
2022-09-18T05:33:09.930Z,8.97
2022-09-18T05:35:39.879Z,9.06
2022-09-18T05:38:07.728Z,9.09
2022-09-18T05:40:37.724Z,9.17
2022-09-18T05:43:07.327Z,9.13
2022-09-18T05:45:35.103Z,9.15
2022-09-18T05:48:05.849Z,9.18
2022-09-18T05:50:37.394Z,9.25
2022-09-18T05:53:15.931Z,9.33
2022-09-18T05:55:44.176Z,9.33
2022-09-18T05:58:19.266Z,9.38
2022-09-18T06:00:47.423Z,9.46
2022-09-18T06:03:16.952Z,9.55
2022-09-18T06:05:52.056Z,9.62
2022-09-18T06:08:20.872Z,9.75
2022-09-18T06:10:48.551Z,9.90
2022-09-18T06:13:19.115Z,10.04
2022-09-18T06:15:49.543Z,10.26
2022-09-18T06:18:17.713Z,10.53
2022-09-18T06:20:56.366Z,10.86
2022-09-18T06:23:28.741Z,11.24
2022-09-18T06:26:01.919Z,11.55
2022-09-18T06:28:34.242Z,11.84
2022-09-18T06:31:03.201Z,11.93
2022-09-18T06:33:36.226Z,12.27
2022-09-18T06:36:08.338Z,12.56
2022-09-18T06:38:37.822Z,12.86
2022-09-18T06:41:05.593Z,13.08
2022-09-18T06:43:33.814Z,13.31
2022-09-18T06:46:02.261Z,13.65
2022-09-18T06:48:31.875Z,13.80
2022-09-18T06:50:59.794Z,13.96
2022-09-18T06:53:28.808Z,14.15
2022-09-18T06:56:00.361Z,14.23
2022-09-18T06:58:28.091Z,14.31
2022-09-18T07:01:00.925Z,14.62
2022-09-18T07:03:29.305Z,14.51
2022-09-18T07:05:58.643Z,14.64
2022-09-18T07:08:26.431Z,14.83
2022-09-18T07:10:54.662Z,15.14
2022-09-18T07:13:23.188Z,15.14
2022-09-18T07:15:50.747Z,15.28
2022-09-18T07:18:18.487Z,15.41
2022-09-18T07:20:45.906Z,15.63
2022-09-18T07:23:14.777Z,15.70
2022-09-18T07:25:43.305Z,15.84
2022-09-18T07:28:11.443Z,15.93
2022-09-18T07:30:40.733Z,16.15
2022-09-18T07:33:10.323Z,16.47
2022-09-18T07:35:41.218Z,16.61
2022-09-18T07:38:10.153Z,16.58
2022-09-18T07:40:40.273Z,16.97
2022-09-18T07:43:10.060Z,16.95
2022-09-18T07:45:38.017Z,17.21
2022-09-18T07:48:07.330Z,17.46
2022-09-18T07:50:37.092Z,17.57
2022-09-18T07:53:05.913Z,17.89
2022-09-18T07:55:37.076Z,17.85
2022-09-18T07:58:07.242Z,17.85
2022-09-18T08:00:39.222Z,17.94
2022-09-18T08:03:11.841Z,18.03
2022-09-18T08:05:42.064Z,18.15
2022-09-18T08:08:13.171Z,18.60
2022-09-18T08:10:45.209Z,18.92
2022-09-18T08:13:14.437Z,19.19
2022-09-18T08:15:43.394Z,19.33
2022-09-18T08:18:14.592Z,19.52
2022-09-18T08:20:44.063Z,19.71
2022-09-18T08:23:12.677Z,19.77
2022-09-18T08:25:41.965Z,19.90
2022-09-18T08:28:10.209Z,19.98
2022-09-18T08:30:38.319Z,20.20
2022-09-18T08:33:08.205Z,20.17
2022-09-18T08:35:36.551Z,20.31
2022-09-18T08:38:05.124Z,20.33
2022-09-18T08:40:42.471Z,20.59
2022-09-18T08:43:13.600Z,20.40
2022-09-18T08:45:56.405Z,20.67
2022-09-18T08:48:32.438Z,20.92
2022-09-18T08:51:04.941Z,20.96
2022-09-18T08:53:43.155Z,21.26
2022-09-18T08:56:21.538Z,20.93
2022-09-18T08:58:59.010Z,21.09
2022-09-18T09:02:03.529Z,21.16
2022-09-18T09:04:32.212Z,21.23
2022-09-18T09:07:22.343Z,21.03
2022-09-18T09:09:56.115Z,21.42
2022-09-18T09:13:05.032Z,21.73
2022-09-18T09:15:47.532Z,21.86
2022-09-18T09:18:18.294Z,21.44
2022-09-18T09:20:53.463Z,21.37
2022-09-18T09:23:58.375Z,21.11
2022-09-18T09:26:34.666Z,21.15
2022-09-18T09:29:15.568Z,21.17
2022-09-18T09:31:53.791Z,20.98
2022-09-18T09:34:24.179Z,21.21
2022-09-18T09:36:56.790Z,21.31
2022-09-18T09:39:29.469Z,21.57
2022-09-18T09:42:03.625Z,21.44
2022-09-18T09:44:38.329Z,21.68
2022-09-18T09:47:38.324Z,21.45
2022-09-18T09:50:08.908Z,21.57
2022-09-18T09:52:42.524Z,21.55
2022-09-18T09:55:13.081Z,21.79
2022-09-18T09:57:43.916Z,21.74
2022-09-18T10:00:19.846Z,21.06
2022-09-18T10:03:15.858Z,21.39
2022-09-18T10:05:53.902Z,20.61
2022-09-18T10:08:34.437Z,20.65
2022-09-18T10:11:05.800Z,20.89
2022-09-18T10:13:33.470Z,21.25
2022-09-18T10:16:20.722Z,21.51
2022-09-18T10:18:50.587Z,21.54
2022-09-18T10:21:21.552Z,21.15
2022-09-18T10:24:19.128Z,20.77
2022-09-18T10:27:11.536Z,20.34
2022-09-18T10:29:40.206Z,19.96
2022-09-18T10:32:11.683Z,19.62
2022-09-18T10:34:50.296Z,18.98
2022-09-18T10:37:30.066Z,19.48
2022-09-18T10:40:01.478Z,19.23
2022-09-18T10:42:31.989Z,19.03
2022-09-18T10:45:20.547Z,19.59
2022-09-18T10:47:48.660Z,19.26
2022-09-18T10:50:19.286Z,19.53
2022-09-18T10:52:54.035Z,19.46
2022-09-18T10:55:27.831Z,19.17
2022-09-18T10:57:58.114Z,19.49
2022-09-18T11:00:29.448Z,19.35
2022-09-18T11:03:01.020Z,19.16
2022-09-18T11:05:35.679Z,18.81
2022-09-18T11:08:19.913Z,18.88
2022-09-18T11:10:50.752Z,19.19
2022-09-18T11:13:25.522Z,19.87
2022-09-18T11:16:03.185Z,20.17
2022-09-18T11:18:32.739Z,19.82
2022-09-18T11:21:05.010Z,19.98
2022-09-18T11:23:34.764Z,19.79
2022-09-18T11:26:27.363Z,19.82
2022-09-18T11:29:25.560Z,19.71
2022-09-18T11:32:05.296Z,20.05
2022-09-18T11:34:39.401Z,19.86
2022-09-18T11:37:11.968Z,20.13
2022-09-18T11:39:43.976Z,19.76
2022-09-18T11:42:16.545Z,19.78
2022-09-18T11:44:45.556Z,20.15
2022-09-18T11:47:18.608Z,20.41
2022-09-18T11:49:49.756Z,20.08
2022-09-18T11:52:23.803Z,20.20
2022-09-18T11:54:57.719Z,20.56
2022-09-18T11:57:48.784Z,20.21
2022-09-18T12:00:20.827Z,20.37
2022-09-18T12:03:24.590Z,20.65
2022-09-18T12:05:57.440Z,20.84
2022-09-18T12:08:47.932Z,21.06
2022-09-18T12:11:18.563Z,20.85
2022-09-18T12:14:23.420Z,20.64
2022-09-18T12:17:00.800Z,20.62
2022-09-18T12:19:51.076Z,20.31
2022-09-18T12:22:36.800Z,19.87
2022-09-18T12:25:15.557Z,20.20
2022-09-18T12:28:20.339Z,20.08
2022-09-18T12:30:48.033Z,19.76
2022-09-18T12:33:23.495Z,19.96
2022-09-18T12:36:38.865Z,20.36
2022-09-18T12:39:14.277Z,20.62
2022-09-18T12:42:19.759Z,20.98
2022-09-18T12:44:59.433Z,21.21
2022-09-18T12:47:50.519Z,20.99
2022-09-18T12:50:48.063Z,21.16
2022-09-18T12:53:35.178Z,20.71
2022-09-18T12:56:32.240Z,20.63
2022-09-18T12:59:39.176Z,20.28
2022-09-18T13:02:06.516Z,19.88
2022-09-18T13:05:12.483Z,19.63
2022-09-18T13:07:56.843Z,19.45
2022-09-18T13:10:32.869Z,19.54
2022-09-18T13:13:29.371Z,19.32
2022-09-18T13:16:03.603Z,19.38
2022-09-18T13:18:39.123Z,19.42
2022-09-18T13:21:18.103Z,19.65
2022-09-18T13:23:47.642Z,20.05
2022-09-18T13:26:15.858Z,19.95
2022-09-18T13:28:44.234Z,19.92
2022-09-18T13:31:14.964Z,19.65
2022-09-18T13:34:07.395Z,19.99
2022-09-18T13:36:37.818Z,20.11
2022-09-18T13:39:16.259Z,20.33
2022-09-18T13:41:53.184Z,20.47
2022-09-18T13:44:24.481Z,20.21
2022-09-18T13:47:14.167Z,19.78
2022-09-18T13:49:57.515Z,19.55
2022-09-18T13:52:29.503Z,19.33
2022-09-18T13:55:25.337Z,19.45
2022-09-18T13:58:30.811Z,19.87
2022-09-18T14:07:36.725Z,20.42
2022-09-18T14:10:20.740Z,20.53
2022-09-18T14:13:03.403Z,20.57
2022-09-18T14:15:31.816Z,20.57
2022-09-18T14:18:17.081Z,20.56
2022-09-18T14:20:52.396Z,20.27
2022-09-18T14:23:48.943Z,20.34
2022-09-18T14:26:39.715Z,20.56
2022-09-18T14:29:14.932Z,20.53
2022-09-18T14:31:52.168Z,20.63
2022-09-18T14:34:28.681Z,20.76
2022-09-18T14:37:02.081Z,20.82
2022-09-18T14:39:32.575Z,20.83
2022-09-18T14:42:11.615Z,20.82
2022-09-18T14:44:39.981Z,20.89
2022-09-18T14:47:20.984Z,21.00
2022-09-18T14:49:49.242Z,21.07
2022-09-18T14:52:32.243Z,21.08
2022-09-18T14:55:11.862Z,20.93
2022-09-18T14:57:56.797Z,20.93
2022-09-18T15:00:27.987Z,20.80
2022-09-18T15:02:58.992Z,20.78
2022-09-18T15:05:27.856Z,20.71
2022-09-18T15:08:05.700Z,20.69
2022-09-18T15:10:35.722Z,20.49
2022-09-18T15:13:07.037Z,20.41
2022-09-18T15:15:43.304Z,20.44
2022-09-18T15:18:23.955Z,20.42
2022-09-18T15:20:53.196Z,20.34
2022-09-18T15:23:36.429Z,20.19
2022-09-18T15:26:11.662Z,20.10
2022-09-18T15:28:43.170Z,19.96
2022-09-18T15:31:14.070Z,19.95
2022-09-18T15:33:55.687Z,19.92
2022-09-18T15:36:34.414Z,19.80
2022-09-18T15:39:04.428Z,19.73
2022-09-18T15:41:45.711Z,19.70
2022-09-18T15:44:55.054Z,19.62
2022-09-18T15:47:28.462Z,19.55
2022-09-18T15:49:57.110Z,19.42
2022-09-18T15:53:01.811Z,19.34
2022-09-18T15:56:04.163Z,19.30
2022-09-18T15:58:35.110Z,19.27
2022-09-18T16:01:05.248Z,19.24
2022-09-18T16:03:34.144Z,19.23
2022-09-18T16:06:04.975Z,19.11
2022-09-18T16:08:37.588Z,19.07
2022-09-18T16:11:06.614Z,18.92
2022-09-18T16:13:36.991Z,18.81
2022-09-18T16:16:13.528Z,18.83
2022-09-18T16:19:08.352Z,18.90
2022-09-18T16:21:43.902Z,18.82
2022-09-18T16:24:28.466Z,18.61
2022-09-18T16:27:05.126Z,18.32
2022-09-18T16:29:34.252Z,18.03
2022-09-18T16:32:01.936Z,18.17
2022-09-18T16:34:29.623Z,18.26
2022-09-18T16:36:57.524Z,18.08
2022-09-18T16:39:26.670Z,17.76
2022-09-18T16:41:54.544Z,17.55
2022-09-18T16:44:24.962Z,17.26
2022-09-18T16:46:55.766Z,17.08
2022-09-18T16:49:28.006Z,16.84
2022-09-18T16:51:55.915Z,16.72
2022-09-18T16:54:24.400Z,16.57
2022-09-18T16:56:58.425Z,16.38
2022-09-18T16:59:30.085Z,16.23
2022-09-18T17:02:04.172Z,16.17
2022-09-18T17:04:33.249Z,16.03
2022-09-18T17:07:01.015Z,16.02
2022-09-18T17:09:28.490Z,16.02
2022-09-18T17:11:56.229Z,15.84
2022-09-18T17:14:24.711Z,15.85
2022-09-18T17:16:52.429Z,15.76
2022-09-18T17:19:20.263Z,15.66
2022-09-18T17:21:48.966Z,15.58
2022-09-18T17:24:17.534Z,15.49
2022-09-18T17:26:45.257Z,15.36
2022-09-18T17:29:12.650Z,15.38
2022-09-18T17:31:40.114Z,15.42
2022-09-18T17:34:08.118Z,15.49
2022-09-18T17:36:38.498Z,15.49
2022-09-18T17:39:06.274Z,15.47
2022-09-18T17:41:34.355Z,15.41
2022-09-18T17:44:02.020Z,15.33
2022-09-18T17:46:29.470Z,15.24
2022-09-18T17:48:58.851Z,15.15
2022-09-18T17:51:28.961Z,15.07
2022-09-18T17:53:59.528Z,15.02
2022-09-18T17:56:30.032Z,14.88
2022-09-18T17:59:00.235Z,14.93
2022-09-18T18:01:29.264Z,14.90
2022-09-18T18:03:57.405Z,14.69
2022-09-18T18:06:25.999Z,14.48
2022-09-18T18:08:53.894Z,14.55
2022-09-18T18:11:23.515Z,14.38
2022-09-18T18:13:52.821Z,14.34
2022-09-18T18:16:23.652Z,14.20
2022-09-18T18:18:54.645Z,13.94
2022-09-18T18:21:22.884Z,14.05
2022-09-18T18:23:58.672Z,14.03
2022-09-18T18:26:28.007Z,13.77
2022-09-18T18:28:56.034Z,13.59
2022-09-18T18:31:25.612Z,13.44
2022-09-18T18:33:55.028Z,13.47
2022-09-18T18:36:30.779Z,13.40
2022-09-18T18:39:01.462Z,13.44
2022-09-18T18:41:30.546Z,13.31
2022-09-18T18:44:01.986Z,13.31
2022-09-18T18:46:35.890Z,13.23
2022-09-18T18:49:11.712Z,13.18
2022-09-18T18:51:47.326Z,13.07
2022-09-18T18:54:17.696Z,12.99
2022-09-18T18:56:46.348Z,12.94
2022-09-18T18:59:17.004Z,12.81
2022-09-18T19:01:44.944Z,12.72
2022-09-18T19:04:16.811Z,12.77
2022-09-18T19:06:45.291Z,12.55
2022-09-18T19:09:20.118Z,12.62
2022-09-18T19:11:50.088Z,12.47
2022-09-18T19:14:25.365Z,12.46
2022-09-18T19:16:54.632Z,12.40
2022-09-18T19:19:24.553Z,12.29
2022-09-18T19:21:52.987Z,12.24
2022-09-18T19:24:20.490Z,12.29
2022-09-18T19:26:48.602Z,12.22
2022-09-18T19:29:17.855Z,12.19
2022-09-18T19:31:46.366Z,12.25
2022-09-18T19:34:19.527Z,12.08
2022-09-18T19:36:50.064Z,12.07
2022-09-18T19:39:20.982Z,11.89
2022-09-18T19:42:08.024Z,11.88
2022-09-18T19:44:50.015Z,11.79
2022-09-18T19:47:27.986Z,11.78
2022-09-18T19:49:57.935Z,11.68
2022-09-18T19:52:28.676Z,11.79
2022-09-18T19:54:58.103Z,11.81
2022-09-18T19:57:27.496Z,11.78
2022-09-18T19:59:57.091Z,11.88
2022-09-18T20:02:25.536Z,12.02
2022-09-18T20:04:53.325Z,12.03
2022-09-18T20:07:20.747Z,12.13
2022-09-18T20:09:48.343Z,12.06
2022-09-18T20:12:16.063Z,12.08
2022-09-18T20:14:43.576Z,12.02
2022-09-18T20:17:11.614Z,11.98
2022-09-18T20:19:39.375Z,12.08
2022-09-18T20:22:06.840Z,12.13
2022-09-18T20:24:34.346Z,11.99
2022-09-18T20:27:02.143Z,11.98
2022-09-18T20:29:30.482Z,11.96
2022-09-18T20:31:58.268Z,11.88
2022-09-18T20:34:26.250Z,11.78
2022-09-18T20:36:54.931Z,11.81
2022-09-18T20:39:22.740Z,11.86
2022-09-18T20:41:51.258Z,11.88
2022-09-18T20:44:19.363Z,11.85
2022-09-18T20:46:46.862Z,11.94
2022-09-18T20:49:17.486Z,12.09
2022-09-18T20:51:46.098Z,12.15
2022-09-18T20:54:15.167Z,12.16
2022-09-18T20:56:44.731Z,12.08
2022-09-18T20:59:17.456Z,11.94
2022-09-18T21:01:46.882Z,11.92
2022-09-18T21:04:19.777Z,11.99
2022-09-18T21:06:56.335Z,11.89
2022-09-18T21:09:27.411Z,12.02
2022-09-18T21:11:56.922Z,11.98
2022-09-18T21:14:25.577Z,12.03
2022-09-18T21:16:53.359Z,12.05
2022-09-18T21:19:21.089Z,12.09
2022-09-18T21:21:48.812Z,12.10
2022-09-18T21:24:17.530Z,12.09
2022-09-18T21:26:47.990Z,12.17
2022-09-18T21:29:18.071Z,12.30
2022-09-18T21:31:51.384Z,12.37
2022-09-18T21:34:24.322Z,12.42
2022-09-18T21:36:54.441Z,12.43
2022-09-18T21:39:22.464Z,12.45
2022-09-18T21:41:51.961Z,12.37
2022-09-18T21:44:24.910Z,12.42
2022-09-18T21:47:03.004Z,12.34
2022-09-18T21:49:31.957Z,12.37
2022-09-18T21:52:02.262Z,12.29
2022-09-18T21:54:31.933Z,12.25
2022-09-18T21:57:00.442Z,12.31
2022-09-18T21:59:30.642Z,12.26
2022-09-18T22:01:58.933Z,12.14
2022-09-18T22:04:29.747Z,12.08
2022-09-18T22:06:59.062Z,12.03
2022-09-18T22:09:29.308Z,11.88
2022-09-18T22:11:57.598Z,11.58
2022-09-18T22:14:32.101Z,11.54
2022-09-18T22:17:02.056Z,11.69
2022-09-18T22:19:29.930Z,11.81
2022-09-18T22:21:57.343Z,11.71
2022-09-18T22:24:26.462Z,11.77
2022-09-18T22:26:59.492Z,11.79
2022-09-18T22:29:34.354Z,11.65
2022-09-18T22:32:02.085Z,11.53
2022-09-18T22:34:31.893Z,11.52
2022-09-18T22:37:00.144Z,11.57
2022-09-18T22:39:28.685Z,11.63
2022-09-18T22:41:56.963Z,11.62
2022-09-18T22:44:24.503Z,11.65
2022-09-18T22:46:53.252Z,11.73
2022-09-18T22:49:22.314Z,11.80
2022-09-18T22:51:50.653Z,11.80
2022-09-18T22:54:23.658Z,11.69
2022-09-18T22:56:52.274Z,11.70
2022-09-18T22:59:22.160Z,11.69
2022-09-18T23:01:56.467Z,11.73
2022-09-18T23:04:29.843Z,11.81
2022-09-18T23:06:59.308Z,11.82
2022-09-18T23:09:27.874Z,11.82
2022-09-18T23:11:56.001Z,11.59
2022-09-18T23:14:28.374Z,11.61
2022-09-18T23:16:57.435Z,11.68
2022-09-18T23:19:28.138Z,11.70
2022-09-18T23:21:56.671Z,11.63
2022-09-18T23:24:24.883Z,11.68
2022-09-18T23:26:53.931Z,11.75
2022-09-18T23:29:23.533Z,11.77
2022-09-18T23:31:53.148Z,11.88
2022-09-18T23:34:23.597Z,11.82
2022-09-18T23:36:54.269Z,11.68
2022-09-18T23:39:28.725Z,11.63
2022-09-18T23:41:58.886Z,11.45
2022-09-18T23:44:28.901Z,11.41
2022-09-18T23:46:56.820Z,11.46
2022-09-18T23:49:24.306Z,11.50
2022-09-18T23:51:54.108Z,11.63
2022-09-18T23:54:27.884Z,11.59
2022-09-18T23:56:55.623Z,11.47
2022-09-18T23:59:25.071Z,11.36
